createdAt,value
2024-01-17T00:00:07.554Z,94455.03
2024-01-17T00:00:39.179Z,94446.97
2024-01-17T00:01:11.659Z,94447.75
2024-01-17T00:01:43.234Z,94444.38
2024-01-17T00:02:16.731Z,94421.88
2024-01-17T00:02:48.370Z,94445.53
2024-01-17T00:03:20.899Z,94440.00
2024-01-17T00:03:52.428Z,94380.59
2024-01-17T00:04:23.908Z,94442.38
2024-01-17T00:04:55.658Z,94437.78
2024-01-17T00:05:28.158Z,94422.88
2024-01-17T00:05:59.755Z,94440.38
2024-01-17T00:06:31.641Z,94439.03
2024-01-17T00:07:03.467Z,94386.16
2024-01-17T00:07:36.063Z,94444.91
2024-01-17T00:08:07.839Z,94430.88
2024-01-17T00:08:39.463Z,94424.28
2024-01-17T00:09:13.057Z,94433.81
2024-01-17T00:09:44.984Z,94430.03
2024-01-17T00:10:17.508Z,94429.72
2024-01-17T00:10:49.219Z,94437.84
2024-01-17T00:11:21.729Z,94431.25
2024-01-17T00:11:53.308Z,94427.13
2024-01-17T00:12:24.854Z,94428.66
2024-01-17T00:12:56.410Z,94430.19
2024-01-17T00:13:28.841Z,94426.22
2024-01-17T00:14:00.397Z,94426.09
2024-01-17T00:14:32.075Z,94429.97
2024-01-17T00:15:04.349Z,94424.59
2024-01-17T00:15:36.904Z,94421.81
2024-01-17T00:16:08.462Z,94422.44
2024-01-17T00:16:40.526Z,94409.38
2024-01-17T00:17:12.870Z,94416.78
2024-01-17T00:17:47.944Z,94420.44
2024-01-17T00:18:19.806Z,94417.91
2024-01-17T00:18:54.709Z,94345.88
2024-01-17T00:19:26.357Z,94413.63
2024-01-17T00:19:59.102Z,94413.69
2024-01-17T00:20:30.712Z,94416.44
2024-01-17T00:21:02.274Z,94401.50
2024-01-17T00:21:33.769Z,94412.44
2024-01-17T00:22:06.582Z,94400.84
2024-01-17T00:22:38.166Z,94313.97
2024-01-17T00:23:09.642Z,94385.28
2024-01-17T00:23:41.237Z,94285.19
2024-01-17T00:24:13.692Z,94373.34
2024-01-17T00:24:45.314Z,94370.16
2024-01-17T00:25:17.016Z,94401.38
2024-01-17T00:25:49.492Z,94398.06
2024-01-17T00:26:20.998Z,94395.31
2024-01-17T00:26:52.677Z,94398.41
2024-01-17T00:27:26.290Z,94393.59
2024-01-17T00:27:58.948Z,94360.03
2024-01-17T00:28:30.451Z,94389.56
2024-01-17T00:29:01.975Z,94391.56
2024-01-17T00:29:33.529Z,94385.94
2024-01-17T00:30:07.866Z,94374.56
2024-01-17T00:30:39.559Z,94386.13
2024-01-17T00:31:11.199Z,94387.72
2024-01-17T00:31:43.610Z,94385.75
2024-01-17T00:32:17.021Z,94378.69
2024-01-17T00:32:49.952Z,94349.66
2024-01-17T00:33:22.790Z,94375.47
2024-01-17T00:33:55.583Z,94381.94
2024-01-17T00:34:27.272Z,94378.38
2024-01-17T00:34:58.910Z,94384.31
2024-01-17T00:35:30.704Z,94377.75
2024-01-17T00:36:03.346Z,94377.94
2024-01-17T00:36:34.952Z,94381.34
2024-01-17T00:37:07.042Z,94377.78
2024-01-17T00:37:38.573Z,94376.06
2024-01-17T00:38:11.431Z,94368.91
2024-01-17T00:38:42.945Z,94375.84
2024-01-17T00:39:14.717Z,94375.03
2024-01-17T00:39:46.219Z,94350.09
2024-01-17T00:40:18.786Z,94370.53
2024-01-17T00:40:50.268Z,94369.75
2024-01-17T00:41:21.745Z,94365.84
2024-01-17T00:41:53.227Z,94366.59
2024-01-17T00:42:27.425Z,94369.00
2024-01-17T00:42:58.901Z,94366.22
2024-01-17T00:43:30.384Z,94311.84
2024-01-17T00:44:05.681Z,94356.75
2024-01-17T00:44:39.474Z,94369.38
2024-01-17T00:45:11.491Z,94343.81
2024-01-17T00:45:43.048Z,94357.72
2024-01-17T00:46:15.965Z,94360.91
2024-01-17T00:46:47.513Z,94339.06
2024-01-17T00:47:19.020Z,94362.47
2024-01-17T00:47:51.911Z,94362.03
2024-01-17T00:48:24.716Z,94358.47
2024-01-17T00:48:56.392Z,94361.47
2024-01-17T00:49:28.262Z,94318.59
2024-01-17T00:49:59.820Z,94356.13
2024-01-17T00:50:32.362Z,94355.91
2024-01-17T00:51:04.795Z,94359.03
2024-01-17T00:51:36.437Z,94353.31
2024-01-17T00:52:08.190Z,94193.38
2024-01-17T00:52:40.680Z,94354.34
2024-01-17T00:53:12.565Z,94351.56
2024-01-17T00:53:44.048Z,94350.19
2024-01-17T00:54:15.542Z,94344.25
2024-01-17T00:54:47.229Z,94343.06
2024-01-17T00:55:19.798Z,94341.72
2024-01-17T00:55:51.306Z,94343.88
2024-01-17T00:56:22.886Z,94343.53
2024-01-17T00:56:54.450Z,94340.69
2024-01-17T00:57:27.074Z,94339.97
2024-01-17T00:57:58.633Z,94335.63
2024-01-17T00:58:30.200Z,94337.75
2024-01-17T00:59:01.772Z,94340.94
2024-01-17T00:59:34.359Z,94326.13
2024-01-17T01:00:08.581Z,94328.13
2024-01-17T01:00:40.701Z,94322.53
2024-01-17T01:01:12.262Z,94327.09
2024-01-17T01:01:44.698Z,94327.91
2024-01-17T01:02:16.266Z,94332.59
2024-01-17T01:02:47.982Z,94341.13
2024-01-17T01:03:20.909Z,94321.78
2024-01-17T01:03:53.447Z,94229.44
2024-01-17T01:04:24.990Z,94327.66
2024-01-17T01:04:56.469Z,94325.09
2024-01-17T01:05:29.123Z,94322.31
2024-01-17T01:06:00.912Z,94323.47
2024-01-17T01:06:33.289Z,94312.22
2024-01-17T01:07:05.043Z,94296.41
2024-01-17T01:07:37.485Z,94312.84
2024-01-17T01:08:09.068Z,94312.66
2024-01-17T01:08:40.637Z,94312.69
2024-01-17T01:09:12.265Z,94315.69
2024-01-17T01:09:45.062Z,94312.09
2024-01-17T01:10:16.772Z,94314.13
2024-01-17T01:10:48.268Z,94312.34
2024-01-17T01:11:19.756Z,94308.63
2024-01-17T01:11:51.326Z,94308.03
2024-01-17T01:12:23.799Z,94309.00
2024-01-17T01:12:55.383Z,94305.28
2024-01-17T01:13:26.879Z,94301.72
2024-01-17T01:13:58.373Z,94303.13
2024-01-17T01:14:30.898Z,94283.06
2024-01-17T01:15:02.567Z,94299.94
2024-01-17T01:15:34.144Z,94308.03
2024-01-17T01:16:05.948Z,94307.63
2024-01-17T01:16:38.423Z,94305.44
2024-01-17T01:17:09.992Z,94301.91
2024-01-17T01:17:41.533Z,94281.28
2024-01-17T01:18:13.415Z,94302.88
2024-01-17T01:18:46.522Z,94291.75
2024-01-17T01:19:19.216Z,94308.22
2024-01-17T01:19:51.001Z,94307.22
2024-01-17T01:20:22.769Z,94281.63
2024-01-17T01:20:54.317Z,94312.56
2024-01-17T01:21:26.858Z,94304.69
2024-01-17T01:21:58.404Z,94302.88
2024-01-17T01:22:30.008Z,94299.31
2024-01-17T01:23:02.435Z,94190.41
2024-01-17T01:23:34.376Z,94305.41
2024-01-17T01:24:06.125Z,94295.75
2024-01-17T01:24:37.668Z,94297.13
2024-01-17T01:25:10.480Z,94305.38
2024-01-17T01:25:42.182Z,94303.16
2024-01-17T01:26:15.254Z,94302.13
2024-01-17T01:26:46.832Z,94306.69
2024-01-17T01:27:19.431Z,94309.25
2024-01-17T01:27:50.956Z,94317.56
2024-01-17T01:28:22.466Z,94299.38
2024-01-17T01:28:54.012Z,94303.97
2024-01-17T01:29:27.104Z,94304.16
2024-01-17T01:29:58.811Z,94308.06
2024-01-17T01:30:30.989Z,94282.13
2024-01-17T01:31:02.570Z,94307.13
2024-01-17T01:31:35.044Z,94303.78
2024-01-17T01:32:06.544Z,94308.50
2024-01-17T01:32:38.127Z,94301.78
2024-01-17T01:33:09.729Z,94303.56
2024-01-17T01:33:42.486Z,94299.03
2024-01-17T01:34:17.615Z,94302.56
2024-01-17T01:34:49.388Z,94309.09
2024-01-17T01:35:20.917Z,94309.28
2024-01-17T01:35:53.445Z,94281.53
2024-01-17T01:36:25.030Z,94305.75
2024-01-17T01:36:56.574Z,94293.69
2024-01-17T01:37:28.163Z,94297.06
2024-01-17T01:38:00.649Z,94257.78
2024-01-17T01:38:32.353Z,94141.22
2024-01-17T01:39:04.189Z,94270.88
2024-01-17T01:39:36.808Z,94299.41
2024-01-17T01:40:09.760Z,94294.13
2024-01-17T01:40:41.287Z,94297.06
2024-01-17T01:41:12.945Z,94287.94
2024-01-17T01:41:45.554Z,94286.31
2024-01-17T01:42:17.098Z,94236.94
2024-01-17T01:42:49.047Z,94277.28
2024-01-17T01:43:21.392Z,94275.31
2024-01-17T01:43:52.896Z,94280.06
2024-01-17T01:44:25.404Z,94271.34
2024-01-17T01:44:57.075Z,94282.78
2024-01-17T01:45:28.650Z,94273.91
2024-01-17T01:46:12.820Z,94272.13
2024-01-17T01:46:47.524Z,94272.91
2024-01-17T01:47:19.201Z,94267.34
2024-01-17T01:47:50.976Z,94184.28
2024-01-17T01:48:22.650Z,94272.69
2024-01-17T01:48:56.177Z,94226.41
2024-01-17T01:49:29.728Z,94262.81
2024-01-17T01:50:01.639Z,94267.53
2024-01-17T01:50:34.167Z,94269.31
2024-01-17T01:51:05.856Z,94237.59
2024-01-17T01:51:38.021Z,94271.28
2024-01-17T01:52:10.867Z,94269.09
2024-01-17T01:52:47.240Z,94264.13
2024-01-17T01:53:18.766Z,94272.22
2024-01-17T01:53:52.812Z,94244.28
2024-01-17T01:54:24.761Z,94262.00
2024-01-17T01:54:57.390Z,94260.84
2024-01-17T01:55:28.915Z,94257.06
2024-01-17T01:56:01.207Z,94270.34
2024-01-17T01:56:36.107Z,94265.72
2024-01-17T01:57:10.666Z,94263.56
2024-01-17T01:57:47.864Z,94260.00
2024-01-17T01:58:20.366Z,94261.97
2024-01-17T01:58:53.933Z,94264.16
2024-01-17T01:59:26.819Z,94225.09
2024-01-17T01:59:58.728Z,94261.41
2024-01-17T02:00:30.606Z,94210.03
2024-01-17T02:01:03.737Z,94255.09
2024-01-17T02:01:37.106Z,94259.25
2024-01-17T02:02:09.103Z,94232.06
2024-01-17T02:02:40.848Z,94261.19
2024-01-17T02:03:14.384Z,94196.97
2024-01-17T02:03:47.377Z,94241.19
2024-01-17T02:04:20.091Z,94257.06
2024-01-17T02:04:54.125Z,94256.44
2024-01-17T02:05:29.281Z,94251.53
2024-01-17T02:06:01.845Z,94233.31
2024-01-17T02:06:36.471Z,94244.56
2024-01-17T02:07:09.002Z,94245.38
2024-01-17T02:07:40.575Z,94244.63
2024-01-17T02:08:12.698Z,94221.81
2024-01-17T02:08:44.553Z,94245.53
2024-01-17T02:09:17.290Z,94243.03
2024-01-17T02:09:49.533Z,94241.00
2024-01-17T02:10:21.296Z,94152.63
2024-01-17T02:10:53.236Z,94247.53
2024-01-17T02:11:26.098Z,94239.81
2024-01-17T02:11:58.717Z,94245.16
2024-01-17T02:12:31.293Z,94237.44
2024-01-17T02:13:03.143Z,94233.50
2024-01-17T02:13:36.084Z,94236.84
2024-01-17T02:14:07.761Z,94231.91
2024-01-17T02:14:41.414Z,94230.34
2024-01-17T02:15:14.099Z,94230.38
2024-01-17T02:15:46.214Z,94206.38
2024-01-17T02:16:18.409Z,94175.94
2024-01-17T02:16:50.028Z,94195.13
2024-01-17T02:17:23.007Z,94218.66
2024-01-17T02:17:55.351Z,94216.91
2024-01-17T02:18:26.979Z,94217.75
2024-01-17T02:18:59.784Z,94220.06
2024-01-17T02:19:32.376Z,94217.50
2024-01-17T02:20:06.965Z,94203.22
2024-01-17T02:20:39.274Z,94212.78
2024-01-17T02:21:12.169Z,94182.84
2024-01-17T02:21:44.818Z,94201.06
2024-01-17T02:22:16.331Z,94207.81
2024-01-17T02:22:47.865Z,94209.59
2024-01-17T02:23:23.124Z,94211.81
2024-01-17T02:24:15.325Z,94121.19
2024-01-17T02:24:46.883Z,94200.44
2024-01-17T02:25:18.467Z,94200.28
2024-01-17T02:25:50.717Z,94205.44
2024-01-17T02:26:23.181Z,94201.06
2024-01-17T02:26:54.956Z,94194.16
2024-01-17T02:27:26.478Z,94196.50
2024-01-17T02:27:58.005Z,94200.25
2024-01-17T02:28:31.970Z,94198.47
2024-01-17T02:29:03.485Z,94188.97
2024-01-17T02:29:35.025Z,94187.59
2024-01-17T02:30:08.955Z,94192.16
2024-01-17T02:30:40.632Z,94202.25
2024-01-17T02:31:13.342Z,94174.47
2024-01-17T02:31:45.446Z,94189.19
2024-01-17T02:32:18.452Z,94176.66
2024-01-17T02:32:50.687Z,94177.09
2024-01-17T02:33:23.121Z,94189.19
2024-01-17T02:33:54.935Z,94071.25
2024-01-17T02:34:27.759Z,94185.19
2024-01-17T02:34:59.447Z,94188.75
2024-01-17T02:35:31.065Z,94184.63
2024-01-17T02:36:04.006Z,94158.28
2024-01-17T02:36:35.543Z,94179.09
2024-01-17T02:37:09.215Z,94177.91
2024-01-17T02:37:40.705Z,94151.38
2024-01-17T02:38:13.909Z,94175.34
2024-01-17T02:38:45.440Z,94180.88
2024-01-17T02:39:18.238Z,94175.91
2024-01-17T02:39:49.732Z,94153.78
2024-01-17T02:40:22.176Z,94169.41
2024-01-17T02:40:53.662Z,94175.34
2024-01-17T02:41:25.221Z,94135.94
2024-01-17T02:41:56.746Z,94171.56
2024-01-17T02:42:28.274Z,94175.72
2024-01-17T02:43:00.714Z,94170.78
2024-01-17T02:43:32.247Z,94161.28
2024-01-17T02:44:03.780Z,94163.06
2024-01-17T02:44:36.488Z,94158.72
2024-01-17T02:45:08.828Z,94164.28
2024-01-17T02:45:40.412Z,94165.44
2024-01-17T02:46:14.150Z,94159.34
2024-01-17T02:46:45.625Z,94165.28
2024-01-17T02:47:17.300Z,94161.34
2024-01-17T02:47:49.041Z,94170.81
2024-01-17T02:48:21.909Z,94157.94
2024-01-17T02:48:53.722Z,94157.94
2024-01-17T02:49:25.387Z,94132.59
2024-01-17T02:49:58.797Z,94149.63
2024-01-17T02:50:31.887Z,94154.59
2024-01-17T02:51:03.695Z,94146.66
2024-01-17T02:51:35.196Z,94147.06
2024-01-17T02:52:06.900Z,94120.53
2024-01-17T02:52:38.399Z,94143.69
2024-01-17T02:53:10.891Z,94113.59
2024-01-17T02:53:42.444Z,94093.03
2024-01-17T02:54:14.062Z,94137.00
2024-01-17T02:54:46.897Z,94144.91
2024-01-17T02:55:19.356Z,94139.19
2024-01-17T02:55:50.880Z,94067.13
2024-01-17T02:56:22.392Z,94138.41
2024-01-17T02:56:55.225Z,94137.19
2024-01-17T02:57:26.788Z,94137.81
2024-01-17T02:57:58.291Z,94140.00
2024-01-17T02:58:29.757Z,94128.28
2024-01-17T02:59:02.232Z,94130.88
2024-01-17T02:59:34.242Z,94131.66
2024-01-17T03:00:07.576Z,94127.50
2024-01-17T03:00:43.323Z,94129.69
2024-01-17T03:01:15.955Z,94107.13
2024-01-17T03:01:47.584Z,94125.13
2024-01-17T03:02:19.096Z,94122.56
2024-01-17T03:02:50.944Z,94123.34
2024-01-17T03:03:23.521Z,94124.13
2024-01-17T03:03:55.712Z,94130.66
2024-01-17T03:04:27.301Z,94130.50
2024-01-17T03:04:59.318Z,94126.13
2024-01-17T03:05:31.788Z,94120.78
2024-01-17T03:06:03.633Z,94122.56
2024-01-17T03:06:35.184Z,94121.56
2024-01-17T03:07:07.825Z,94116.22
2024-01-17T03:07:39.406Z,94119.78
2024-01-17T03:08:10.876Z,94124.34
2024-01-17T03:08:42.477Z,94115.81
2024-01-17T03:09:15.722Z,94125.16
2024-01-17T03:09:48.573Z,94119.81
2024-01-17T03:10:20.358Z,94104.56
2024-01-17T03:10:52.854Z,94118.22
2024-01-17T03:11:24.471Z,93968.81
2024-01-17T03:11:56.660Z,94119.59
2024-01-17T03:12:28.225Z,94118.19
2024-01-17T03:13:01.043Z,94106.91
2024-01-17T03:13:32.540Z,94118.38
2024-01-17T03:14:04.377Z,94116.22
2024-01-17T03:14:36.932Z,93941.75
2024-01-17T03:15:11.743Z,94109.50
2024-01-17T03:15:43.853Z,94108.50
2024-01-17T03:16:20.020Z,94105.94
2024-01-17T03:16:51.491Z,94109.50
2024-01-17T03:17:23.987Z,94080.16
2024-01-17T03:17:57.210Z,94101.34
2024-01-17T03:18:30.005Z,94104.16
2024-01-17T03:19:02.736Z,94109.06
2024-01-17T03:19:34.352Z,94093.63
2024-01-17T03:20:07.488Z,94103.75
2024-01-17T03:20:39.115Z,94107.31
2024-01-17T03:21:11.634Z,94099.38
2024-01-17T03:21:47.118Z,94083.94
2024-01-17T03:22:18.691Z,94103.72
2024-01-17T03:22:53.798Z,94054.25
2024-01-17T03:23:25.326Z,94093.84
2024-01-17T03:23:56.866Z,94093.03
2024-01-17T03:24:28.447Z,94093.03
2024-01-17T03:25:02.311Z,94095.00
2024-01-17T03:25:33.886Z,94089.69
2024-01-17T03:26:05.439Z,94094.41
2024-01-17T03:26:36.981Z,94019.84
2024-01-17T03:27:08.606Z,94087.47
2024-01-17T03:27:41.247Z,94068.50
2024-01-17T03:28:12.724Z,94069.88
2024-01-17T03:28:45.106Z,94083.13
2024-01-17T03:29:16.686Z,94087.69
2024-01-17T03:29:49.160Z,94081.75
2024-01-17T03:30:21.119Z,94080.56
2024-01-17T03:30:52.752Z,94086.09
2024-01-17T03:31:24.237Z,94079.97
2024-01-17T03:31:55.816Z,94010.31
2024-01-17T03:32:28.361Z,94048.47
2024-01-17T03:32:59.966Z,94016.66
2024-01-17T03:33:31.745Z,94075.81
2024-01-17T03:34:03.445Z,94077.19
2024-01-17T03:34:36.177Z,94070.44
2024-01-17T03:35:07.849Z,94057.78
2024-01-17T03:35:39.406Z,94063.94
2024-01-17T03:36:12.007Z,94040.56
2024-01-17T03:36:43.546Z,94061.31
2024-01-17T03:37:15.038Z,94037.16
2024-01-17T03:37:46.566Z,94064.66
2024-01-17T03:38:19.782Z,94052.94
2024-01-17T03:38:51.418Z,94011.81
2024-01-17T03:39:22.997Z,94054.53
2024-01-17T03:39:54.521Z,94050.34
2024-01-17T03:40:28.345Z,94053.72
2024-01-17T03:41:02.040Z,94047.59
2024-01-17T03:41:33.578Z,94044.38
2024-01-17T03:42:05.396Z,94057.25
2024-01-17T03:42:37.887Z,94052.09
2024-01-17T03:43:09.408Z,94050.31
2024-01-17T03:43:40.930Z,94042.81
2024-01-17T03:44:12.605Z,94040.81
2024-01-17T03:44:44.389Z,94034.66
2024-01-17T03:45:16.926Z,94034.06
2024-01-17T03:45:49.778Z,94042.59
2024-01-17T03:46:21.346Z,94037.81
2024-01-17T03:46:53.007Z,94034.25
2024-01-17T03:47:25.559Z,94031.84
2024-01-17T03:47:57.114Z,94027.69
2024-01-17T03:48:28.792Z,94021.56
2024-01-17T03:49:00.962Z,94020.94
2024-01-17T03:49:33.551Z,94031.06
2024-01-17T03:50:06.059Z,94011.66
2024-01-17T03:50:37.662Z,94018.91
2024-01-17T03:51:09.541Z,93945.44
2024-01-17T03:51:42.044Z,94023.28
2024-01-17T03:52:13.557Z,94011.97
2024-01-17T03:52:45.038Z,94010.41
2024-01-17T03:53:16.544Z,93904.91
2024-01-17T03:53:49.157Z,94009.16
2024-01-17T03:54:20.707Z,93941.22
2024-01-17T03:54:52.199Z,94008.63
2024-01-17T03:55:23.780Z,94000.47
2024-01-17T03:55:57.591Z,94008.19
2024-01-17T03:56:29.121Z,94013.16
2024-01-17T03:57:01.093Z,94002.84
2024-01-17T03:57:32.928Z,93966.31
2024-01-17T03:58:05.749Z,94005.47
2024-01-17T03:58:37.321Z,94004.06
2024-01-17T03:59:08.868Z,93993.53
2024-01-17T03:59:44.009Z,93997.91
2024-01-17T04:00:16.021Z,93993.94
2024-01-17T04:00:47.580Z,93993.13
2024-01-17T04:01:19.361Z,93995.28
2024-01-17T04:01:51.850Z,93947.69
2024-01-17T04:02:23.386Z,93988.38
2024-01-17T04:02:54.997Z,93983.81
2024-01-17T04:03:27.691Z,93985.81
2024-01-17T04:04:00.187Z,93986.59
2024-01-17T04:04:31.752Z,93989.19
2024-01-17T04:05:03.358Z,93894.22
2024-01-17T04:05:34.944Z,93991.91
2024-01-17T04:06:07.936Z,93947.09
2024-01-17T04:06:39.656Z,93987.50
2024-01-17T04:07:11.296Z,93981.59
2024-01-17T04:07:42.799Z,93981.84
2024-01-17T04:08:15.290Z,93981.66
2024-01-17T04:08:46.854Z,93981.25
2024-01-17T04:09:18.512Z,93976.88
2024-01-17T04:09:50.108Z,93975.34
2024-01-17T04:10:22.631Z,93974.06
2024-01-17T04:10:54.147Z,93983.38
2024-01-17T04:11:27.114Z,93977.25
2024-01-17T04:11:59.656Z,93969.72
2024-01-17T04:12:31.146Z,93968.34
2024-01-17T04:13:02.685Z,93964.94
2024-01-17T04:13:35.148Z,93963.00
2024-01-17T04:14:07.180Z,93965.94
2024-01-17T04:14:38.888Z,93958.41
2024-01-17T04:15:10.617Z,93945.75
2024-01-17T04:15:43.636Z,93958.34
2024-01-17T04:16:15.194Z,93958.34
2024-01-17T04:16:46.674Z,93914.28
2024-01-17T04:17:19.151Z,93947.22
2024-01-17T04:17:50.768Z,93950.00
2024-01-17T04:18:22.549Z,93950.84
2024-01-17T04:18:54.433Z,93887.41
2024-01-17T04:19:27.425Z,93942.69
2024-01-17T04:19:59.024Z,93934.84
2024-01-17T04:20:30.559Z,93940.75
2024-01-17T04:21:03.329Z,93938.97
2024-01-17T04:21:36.448Z,93934.75
2024-01-17T04:22:08.359Z,93930.19
2024-01-17T04:22:39.921Z,93934.53
2024-01-17T04:23:11.703Z,93926.59
2024-01-17T04:23:44.189Z,93926.97
2024-01-17T04:24:15.732Z,93883.75
2024-01-17T04:24:47.348Z,93905.84
2024-01-17T04:25:19.824Z,93923.22
2024-01-17T04:25:51.319Z,93919.44
2024-01-17T04:26:24.596Z,93914.50
2024-01-17T04:26:57.775Z,93908.34
2024-01-17T04:27:32.359Z,93907.31
2024-01-17T04:28:05.816Z,93906.78
2024-01-17T04:28:37.323Z,93909.50
2024-01-17T04:29:09.802Z,93899.78
2024-01-17T04:29:41.338Z,93923.97
2024-01-17T04:30:13.592Z,93903.94
2024-01-17T04:30:45.587Z,93867.19
2024-01-17T04:31:25.410Z,93893.63
2024-01-17T04:31:57.940Z,93904.50
2024-01-17T04:32:30.400Z,93897.00
2024-01-17T04:33:03.146Z,93814.88
2024-01-17T04:33:34.945Z,93903.53
2024-01-17T04:34:06.829Z,93902.56
2024-01-17T04:34:38.887Z,93902.56
2024-01-17T04:35:12.127Z,93896.59
2024-01-17T04:35:43.722Z,93885.59
2024-01-17T04:36:16.940Z,93901.13
2024-01-17T04:36:48.499Z,93890.78
2024-01-17T04:37:19.959Z,93878.69
2024-01-17T04:37:52.454Z,93891.97
2024-01-17T04:38:23.978Z,93889.19
2024-01-17T04:38:55.602Z,93888.97
2024-01-17T04:39:27.103Z,93888.75
2024-01-17T04:39:59.562Z,93888.97
2024-01-17T04:40:31.030Z,93884.44
2024-01-17T04:41:04.004Z,93881.28
2024-01-17T04:41:36.931Z,93879.50
2024-01-17T04:42:09.946Z,93867.84
2024-01-17T04:42:41.673Z,93882.06
2024-01-17T04:43:13.179Z,93884.13
2024-01-17T04:43:46.466Z,93864.88
2024-01-17T04:44:17.971Z,93875.06
2024-01-17T04:44:50.407Z,93880.59
2024-01-17T04:45:21.931Z,93856.19
2024-01-17T04:45:53.442Z,93881.34
2024-01-17T04:46:25.896Z,93875.28
2024-01-17T04:46:57.474Z,93879.47
2024-01-17T04:47:29.093Z,93707.25
2024-01-17T04:48:01.620Z,93870.28
2024-01-17T04:48:34.467Z,93870.06
2024-01-17T04:49:07.363Z,93869.06
2024-01-17T04:49:39.356Z,93868.88
2024-01-17T04:50:13.489Z,93867.84
2024-01-17T04:50:45.163Z,93863.91
2024-01-17T04:51:17.255Z,93862.06
2024-01-17T04:51:48.841Z,93858.75
2024-01-17T04:52:21.378Z,93859.56
2024-01-17T04:52:52.873Z,93846.69
2024-01-17T04:53:24.412Z,93859.09
2024-01-17T04:53:56.189Z,93849.84
2024-01-17T04:54:31.960Z,93861.06
2024-01-17T04:55:04.900Z,93819.91
2024-01-17T04:55:36.801Z,93810.94
2024-01-17T04:56:09.331Z,93840.13
2024-01-17T04:56:42.676Z,93861.47
2024-01-17T04:57:15.834Z,93854.13
2024-01-17T04:57:47.327Z,93855.31
2024-01-17T04:58:19.446Z,93859.50
2024-01-17T04:58:52.348Z,93850.88
2024-01-17T04:59:23.925Z,93849.09
2024-01-17T04:59:55.421Z,93853.13
2024-01-17T05:00:27.881Z,93852.75
2024-01-17T05:01:00.835Z,93837.34
2024-01-17T05:01:32.428Z,93816.41
2024-01-17T05:02:06.023Z,93840.56
2024-01-17T05:02:37.868Z,93840.56
2024-01-17T05:03:09.689Z,93837.56
2024-01-17T05:03:43.274Z,93822.66
2024-01-17T05:04:15.732Z,93818.41
2024-01-17T05:04:47.382Z,93836.56
2024-01-17T05:05:19.026Z,93833.81
2024-01-17T05:05:50.753Z,93827.31
2024-01-17T05:06:23.345Z,93836.00
2024-01-17T05:06:54.885Z,93833.41
2024-01-17T05:07:27.274Z,93823.31
2024-01-17T05:07:59.052Z,93818.72
2024-01-17T05:08:31.751Z,93799.78
2024-01-17T05:09:08.516Z,93817.28
2024-01-17T05:09:40.558Z,93822.09
2024-01-17T05:10:12.206Z,93812.41
2024-01-17T05:10:45.383Z,93826.28
2024-01-17T05:11:20.965Z,93725.09
2024-01-17T05:11:53.246Z,93822.50
2024-01-17T05:12:26.107Z,93824.31
2024-01-17T05:12:58.621Z,93810.25
2024-01-17T05:13:30.119Z,93823.31
2024-01-17T05:14:01.665Z,93820.84
2024-01-17T05:14:34.146Z,93821.22
2024-01-17T05:15:06.281Z,93828.84
2024-01-17T05:15:38.074Z,93824.59
2024-01-17T05:16:10.106Z,93825.81
2024-01-17T05:16:42.599Z,93824.59
2024-01-17T05:17:14.155Z,93824.19
2024-01-17T05:17:45.788Z,93822.16
2024-01-17T05:18:17.634Z,93823.94
2024-01-17T05:18:50.295Z,93829.56
2024-01-17T05:19:22.100Z,93814.63
2024-01-17T05:19:53.872Z,93819.56
2024-01-17T05:20:25.470Z,93818.16
2024-01-17T05:20:57.084Z,93819.50
2024-01-17T05:21:30.545Z,93823.31
2024-01-17T05:22:02.054Z,93818.34
2024-01-17T05:22:33.542Z,93802.25
2024-01-17T05:23:05.267Z,93823.66
2024-01-17T05:23:39.032Z,93822.53
2024-01-17T05:24:10.632Z,93822.53
2024-01-17T05:24:42.138Z,93817.69
2024-01-17T05:25:14.581Z,93821.06
2024-01-17T05:25:48.207Z,93814.13
2024-01-17T05:26:19.735Z,93813.50
2024-01-17T05:26:51.274Z,93821.06
2024-01-17T05:27:22.765Z,93815.91
2024-01-17T05:27:55.681Z,93812.13
2024-01-17T05:28:28.101Z,93801.22
2024-01-17T05:28:59.626Z,93806.75
2024-01-17T05:29:31.625Z,93806.38
2024-01-17T05:30:04.560Z,93815.13
2024-01-17T05:30:37.355Z,93813.19
2024-01-17T05:31:11.038Z,93809.03
2024-01-17T05:31:42.594Z,93808.75
2024-01-17T05:32:14.109Z,93810.75
2024-01-17T05:32:46.815Z,93804.97
2024-01-17T05:33:18.487Z,93807.53
2024-01-17T05:33:50.271Z,93807.75
2024-01-17T05:34:22.882Z,93809.53
2024-01-17T05:34:55.300Z,93811.13
2024-01-17T05:35:28.557Z,93806.75
2024-01-17T05:36:00.372Z,93798.72
2024-01-17T05:36:34.088Z,93796.34
2024-01-17T05:37:07.415Z,93800.84
2024-01-17T05:37:41.933Z,93789.19
2024-01-17T05:38:13.563Z,93789.97
2024-01-17T05:38:46.134Z,93764.84
2024-01-17T05:39:17.697Z,93786.81
2024-01-17T05:39:49.308Z,93788.03
2024-01-17T05:40:20.804Z,93787.59
2024-01-17T05:40:53.675Z,93789.38
2024-01-17T05:41:25.241Z,93789.50
2024-01-17T05:41:56.791Z,93788.41
2024-01-17T05:42:28.301Z,93796.25
2024-01-17T05:43:02.421Z,93790.09
2024-01-17T05:43:33.938Z,93786.94
2024-01-17T05:44:06.346Z,93788.50
2024-01-17T05:44:37.946Z,93784.59
2024-01-17T05:45:09.956Z,93777.72
2024-01-17T05:45:42.554Z,93785.47
2024-01-17T05:46:17.216Z,93786.28
2024-01-17T05:46:50.818Z,93779.31
2024-01-17T05:47:22.331Z,93776.53
2024-01-17T05:47:54.903Z,93655.88
2024-01-17T05:48:26.878Z,93718.81
2024-01-17T05:48:58.643Z,93778.44
2024-01-17T05:49:30.268Z,93751.03
2024-01-17T05:50:02.023Z,93773.84
2024-01-17T05:50:35.810Z,93774.69
2024-01-17T05:51:08.456Z,93768.47
2024-01-17T05:51:39.991Z,93773.84
2024-01-17T05:52:11.533Z,93774.50
2024-01-17T05:52:46.842Z,93776.28
2024-01-17T05:53:18.386Z,93773.19
2024-01-17T05:53:50.017Z,93764.22
2024-01-17T05:54:22.550Z,93709.00
2024-01-17T05:54:54.153Z,93675.19
2024-01-17T05:55:25.656Z,93763.44
2024-01-17T05:55:58.991Z,93759.94
2024-01-17T05:56:31.410Z,93740.81
2024-01-17T05:57:03.232Z,93758.91
2024-01-17T05:57:34.857Z,93756.25
2024-01-17T05:58:10.181Z,93744.56
2024-01-17T05:58:41.737Z,93748.56
2024-01-17T05:59:14.242Z,93750.72
2024-01-17T05:59:45.895Z,93752.72
2024-01-17T06:00:19.599Z,93752.19
2024-01-17T06:00:51.416Z,93748.50
2024-01-17T06:01:22.976Z,93699.94
2024-01-17T06:01:56.881Z,93734.31
2024-01-17T06:02:29.687Z,93747.25
2024-01-17T06:03:01.342Z,93745.34
2024-01-17T06:03:32.939Z,93726.44
2024-01-17T06:04:04.846Z,93714.78
2024-01-17T06:04:37.360Z,93740.75
2024-01-17T06:05:09.673Z,93743.19
2024-01-17T06:05:41.254Z,93740.41
2024-01-17T06:06:12.880Z,93733.88
2024-01-17T06:06:45.601Z,93727.59
2024-01-17T06:07:17.267Z,93733.31
2024-01-17T06:07:48.869Z,93708.81
2024-01-17T06:08:21.350Z,93740.19
2024-01-17T06:08:52.893Z,93733.81
2024-01-17T06:09:24.443Z,93730.19
2024-01-17T06:09:56.059Z,93712.19
2024-01-17T06:10:29.485Z,93728.75
2024-01-17T06:11:02.252Z,93729.53
2024-01-17T06:11:33.791Z,93720.31
2024-01-17T06:12:06.913Z,93723.47
2024-01-17T06:12:39.409Z,93716.84
2024-01-17T06:13:12.252Z,93722.22
2024-01-17T06:13:43.764Z,93717.06
2024-01-17T06:14:16.570Z,93723.38
2024-01-17T06:14:50.365Z,93724.25
2024-01-17T06:15:21.914Z,93724.03
2024-01-17T06:15:53.424Z,93722.69
2024-01-17T06:16:25.540Z,93714.94
2024-01-17T06:16:57.988Z,93683.47
2024-01-17T06:17:29.691Z,93720.09
2024-01-17T06:18:01.431Z,93718.63
2024-01-17T06:18:34.105Z,93717.28
2024-01-17T06:19:06.181Z,93717.53